To NAV CANADA Home Page Login to a new session Search on AWWS site Feedback and Comments Disclaimer Vers la page française équivalente Tips FAQ What's new on the site To the Forecasts and Observations / NOTAM section To "File a Flight Plan" website Publications and other links Update of the User's profile FIC Telephone Numbers My Weather Data Folder Route Weather Data Regional Weather Data Local Weather Data To the Forecasts and Observations / NOTAM section
Request Generated 06/26/2017 at 22:28:50 UTC . Weather information available at that time is displayed.

METAR/TAF

YARMOUTH/NS    

METAR CYQI 262200Z 27012KT 15SM FEW030 FEW250 16/12 A2994 RMK SC1CI1
SC TR CI TR SLP139 DENSITY ALT 400FT=
METAR CYQI 262100Z 25010G17KT 15SM FEW030 FEW250 16/13 A2993 RMK
CU1CI1 CU TR CI TR SLP136 DENSITY ALT 400FT=
METAR CYQI 262000Z 26010KT 15SM FEW030 FEW250 17/14 A2992 RMK CU1CI1
CU TR CI TR SLP134 DENSITY ALT 400FT=

TAF CYQI 261739Z 2618/2706 25010KT P6SM FEW025
RMK NXT FCST BY 270000Z=
Your time UTC time
Weather data provided by Environment Canada and NAV CANADA